CheckWX is a tool to help pilots better visualize weather data.  It is not intended as a substitute for an official pre-flight weather briefing.

18:06:52 UTC

ENMS METAR
Mosjøen , Kjærstad Airport
Norway
Current

17 mins ago

ENMS 241750Z 26003KT 220V280 CAVOK 14/M00 Q1021 RMK WIND 412FT 26003KT 210V320
Observed
Apr-24 @ 17:50 UTC
Wind
  • 260° at 3 KTS
Visibility
10,000+ meters
Flight Rules
VFR
Cloud Levels
  • Clear skies
Temperature
14°C / 57°F
Dewpoint
C / 32°F
Humidity
39%
Altimeter
30.15" Hg
Pressure
1020.92 hPa
Previous

47 mins ago

ENMS 241720Z 21006KT CAVOK 15/M01 Q1021 RMK WIND 412FT 23005KT 190V270
Observed
Apr-24 @ 17:20 UTC
Wind
  • 210° at 6 KTS
Visibility
10,000+ meters
Flight Rules
VFR
Cloud Levels
  • Clear skies
Temperature
15°C / 59°F
Dewpoint
-1°C / 30°F
Humidity
34%
Altimeter
30.15" Hg
Pressure
1020.92 hPa
Previous

1 hour ago

ENMS 241650Z 21005KT CAVOK 16/M01 Q1020 RMK WIND 412FT 22004KT 190V250
Observed
Apr-24 @ 16:50 UTC
Wind
  • 210° at 5 KTS
Visibility
10,000+ meters
Flight Rules
VFR
Cloud Levels
  • Clear skies
Temperature
16°C / 61°F
Dewpoint
-1°C / 30°F
Humidity
31%
Altimeter
30.12" Hg
Pressure
1019.92 hPa